Time;durP1;ratioP1;P1;durP2;ratioP2;P2;SDS_P1;SDS_P2;PMS_P1;PMS_P2;Temp;Humidity;BMP_temperature;BMP_pressure;BME280_temperature;BME280_humidity;BME280_pressure;Samples;Min_cycle;Max_cycle;Signal;HPM_P1;HPM_P2
2021/08/27 00:01:02;;;;;;;1.80;1.70;;;13.60;99.90;;;;;;4984516;28;20524;-67
2021/08/27 00:03:29;;;;;;;2.80;1.90;;;13.60;99.90;;;;;;4991677;28;20201;-68
2021/08/27 00:05:56;;;;;;;2.17;2.00;;;13.60;99.90;;;;;;4979015;28;20236;-68
2021/08/27 00:08:23;;;;;;;3.65;2.33;;;13.60;99.90;;;;;;4979287;28;20401;-68
2021/08/27 00:10:50;;;;;;;3.75;2.55;;;13.60;99.90;;;;;;4989903;28;20277;-67
2021/08/27 00:13:18;;;;;;;2.60;2.20;;;13.60;99.90;;;;;;4993621;28;20229;-68
2021/08/27 00:15:45;;;;;;;1.75;1.65;;;13.60;99.90;;;;;;4988487;28;20237;-67
2021/08/27 00:18:12;;;;;;;2.40;2.20;;;13.60;99.90;;;;;;4992449;28;20211;-69
2021/08/27 00:20:39;;;;;;;4.72;2.50;;;13.50;99.90;;;;;;4981591;28;20390;-68
2021/08/27 00:23:06;;;;;;;2.40;2.22;;;13.60;99.90;;;;;;4991239;28;20198;-66
2021/08/27 00:25:33;;;;;;;3.55;2.55;;;13.80;99.90;;;;;;4983327;28;20245;-69
2021/08/27 00:28:02;;;;;;;3.10;2.78;;;13.80;99.90;;;;;;4978239;28;20210;-68
2021/08/27 00:30:29;;;;;;;5.68;1.98;;;13.70;99.90;;;;;;4986980;28;20229;-67
2021/08/27 00:32:56;;;;;;;2.10;1.90;;;13.80;99.90;;;;;;4979251;28;20691;-68
2021/08/27 00:35:23;;;;;;;3.58;2.20;;;13.80;99.90;;;;;;4979269;28;20429;-67
2021/08/27 00:37:50;;;;;;;3.92;2.05;;;13.90;99.90;;;;;;4994468;28;20308;-68
2021/08/27 00:40:17;;;;;;;2.63;1.90;;;13.90;99.90;;;;;;4990848;28;20257;-68
2021/08/27 00:42:44;;;;;;;2.25;2.05;;;13.80;99.90;;;;;;4992737;28;20206;-68
2021/08/27 00:45:12;;;;;;;1.70;1.60;;;13.90;99.90;;;;;;4984527;28;20532;-68
2021/08/27 00:47:39;;;;;;;2.13;2.03;;;13.90;99.90;;;;;;4998270;28;20202;-68
2021/08/27 00:50:07;;;;;;;2.15;1.92;;;13.70;99.90;;;;;;4979926;28;20280;-68
2021/08/27 00:52:36;;;;;;;4.22;1.90;;;13.60;99.90;;;;;;4987982;28;20240;-69
2021/08/27 00:55:03;;;;;;;2.97;1.88;;;13.60;99.90;;;;;;4997977;28;20210;-68
2021/08/27 00:57:31;;;;;;;3.45;2.28;;;13.50;99.90;;;;;;4989052;28;20409;-68
2021/08/27 00:59:58;;;;;;;1.52;1.40;;;13.70;99.90;;;;;;4978376;28;20253;-69
2021/08/27 01:02:25;;;;;;;2.22;2.10;;;13.90;99.90;;;;;;4985730;28;20206;-68
2021/08/27 01:04:54;;;;;;;3.25;2.00;;;13.90;99.90;;;;;;4983086;28;20287;-68
2021/08/27 01:07:25;;;;;;;4.78;1.67;;;13.90;99.90;;;;;;4980179;28;20210;-67
2021/08/27 01:10:04;;;;;;;3.97;2.65;;;14.00;99.90;;;;;;4991755;28;20225;-67
2021/08/27 01:12:37;;;;;;;4.93;2.13;;;14.00;99.90;;;;;;4978049;28;20202;-69
2021/08/27 01:15:16;;;;;;;2.30;1.70;;;14.00;99.90;;;;;;4984161;28;20240;-68
2021/08/27 01:17:49;;;;;;;1.95;1.85;;;13.70;99.90;;;;;;4987682;28;20210;-68
2021/08/27 01:20:38;;;;;;;1.42;1.30;;;13.60;99.90;;;;;;4982915;28;20249;-68
2021/08/27 01:23:43;;;;;;;1.70;1.60;;;13.50;99.90;;;;;;4985997;28;20195;-69
2021/08/27 01:26:14;;;;;;;1.30;1.20;;;13.50;99.90;;;;;;4985249;28;20407;-68
2021/08/27 01:28:54;;;;;;;1.77;1.65;;;13.40;99.90;;;;;;4978300;28;20206;-68
2021/08/27 01:31:34;;;;;;;2.67;1.80;;;13.40;99.90;;;;;;4985025;28;20257;-68
2021/08/27 01:34:20;;;;;;;2.05;1.85;;;13.40;99.90;;;;;;4986322;28;20233;-67
2021/08/27 01:36:50;;;;;;;3.13;1.38;;;13.50;99.90;;;;;;4992155;28;20263;-69
2021/08/27 01:39:19;;;;;;;1.50;1.40;;;13.60;99.90;;;;;;4997655;28;20233;-68
2021/08/27 01:41:52;;;;;;;2.40;2.20;;;13.50;99.90;;;;;;4983619;28;20241;-66
2021/08/27 01:44:22;;;;;;;1.55;1.45;;;13.70;99.90;;;;;;4984855;28;20259;-67
2021/08/27 01:46:52;;;;;;;5.43;1.42;;;13.80;99.90;;;;;;4977195;28;20198;-68
2021/08/27 01:49:21;;;;;;;1.52;1.42;;;14.00;99.90;;;;;;4977761;28;20205;-66
2021/08/27 01:51:50;;;;;;;1.83;1.73;;;14.00;99.90;;;;;;4994748;28;20373;-66
2021/08/27 01:54:18;;;;;;;2.35;1.90;;;13.90;99.90;;;;;;4996745;28;20245;-66
2021/08/27 01:56:45;;;;;;;1.80;1.70;;;13.80;99.90;;;;;;4980092;28;20199;-67
2021/08/27 01:59:12;;;;;;;2.25;2.05;;;13.80;99.90;;;;;;4986534;28;20252;-68
2021/08/27 02:01:40;;;;;;;2.63;2.30;;;13.90;99.90;;;;;;4980196;28;20206;-66
2021/08/27 02:04:14;;;;;;;4.65;2.00;;;13.80;99.90;;;;;;4977468;28;20394;-67
2021/08/27 02:06:42;;;;;;;2.97;2.78;;;13.90;99.90;;;;;;4991245;28;20280;-66
2021/08/27 02:09:10;;;;;;;2.22;2.13;;;13.90;99.90;;;;;;4988743;28;20199;-66
2021/08/27 02:11:37;;;;;;;2.40;2.20;;;14.00;99.90;;;;;;4990629;28;20229;-66
2021/08/27 02:14:05;;;;;;;2.17;2.08;;;14.10;99.90;;;;;;4995499;28;20225;-66
2021/08/27 02:16:32;;;;;;;1.80;1.70;;;14.20;99.90;;;;;;4996483;28;20259;-66
2021/08/27 02:19:00;;;;;;;2.28;1.77;;;14.10;99.90;;;;;;4978813;28;20221;-66
2021/08/27 02:21:32;;;;;;;1.77;1.40;;;14.10;99.90;;;;;;4984426;28;20501;-66
2021/08/27 02:24:02;;;;;;;1.50;1.40;;;14.70;99.90;;;;;;4985124;28;20199;-66
2021/08/27 02:26:31;;;;;;;1.50;1.40;;;14.20;99.90;;;;;;4993181;28;20260;-66
2021/08/27 02:28:59;;;;;;;2.83;1.77;;;14.20;99.90;;;;;;4993118;28;20205;-66
2021/08/27 02:31:28;;;;;;;1.60;1.50;;;14.10;99.90;;;;;;4987758;28;20563;-67
2021/08/27 02:33:56;;;;;;;1.85;1.75;;;14.20;99.90;;;;;;4984680;28;20232;-66
2021/08/27 02:36:24;;;;;;;3.03;1.70;;;14.20;99.90;;;;;;4981179;28;20245;-65
2021/08/27 02:38:52;;;;;;;2.88;1.73;;;14.10;99.90;;;;;;4996582;28;20448;-67
2021/08/27 02:41:19;;;;;;;1.75;1.65;;;14.00;99.90;;;;;;4981056;28;20374;-67
2021/08/27 02:43:47;;;;;;;4.45;1.90;;;14.00;99.90;;;;;;4987471;28;20201;-67
2021/08/27 02:46:14;;;;;;;1.92;1.83;;;14.00;99.90;;;;;;4979890;28;20297;-66
2021/08/27 02:48:41;;;;;;;2.33;2.10;;;14.00;99.90;;;;;;4987468;28;20575;-66
2021/08/27 02:51:14;;;;;;;2.25;1.63;;;13.90;99.90;;;;;;4996206;28;20268;-66
2021/08/27 02:53:49;;;;;;;1.85;1.75;;;13.70;99.90;;;;;;4982182;28;20738;-66
2021/08/27 02:56:21;;;;;;;2.15;1.70;;;13.70;99.90;;;;;;4986467;28;20221;-66
2021/08/27 02:58:50;;;;;;;1.85;1.75;;;13.70;99.90;;;;;;4978856;28;20260;-66
2021/08/27 03:01:24;;;;;;;2.00;1.90;;;13.50;99.90;;;;;;4987349;28;20257;-66
2021/08/27 03:04:25;;;;;;;2.72;2.05;;;13.60;99.90;;;;;;4976708;28;20198;-66
2021/08/27 03:07:07;;;;;;;2.53;2.33;;;13.40;99.90;;;;;;4976467;28;20545;-66
2021/08/27 03:09:48;;;;;;;3.60;2.78;;;13.30;99.90;;;;;;4982790;28;20210;-66
2021/08/27 03:12:18;;;;;;;3.60;3.22;;;13.30;99.90;;;;;;4982953;28;20240;-67
2021/08/27 03:14:54;;;;;;;3.35;2.80;;;13.30;99.90;;;;;;4984931;28;20293;-66
2021/08/27 03:17:23;;;;;;;3.40;2.83;;;13.40;99.90;;;;;;4995158;28;20238;-67
2021/08/27 03:20:09;;;;;;;3.35;3.05;;;13.50;99.90;;;;;;4995933;28;20241;-67
2021/08/27 03:22:50;;;;;;;5.80;3.63;;;13.60;99.90;;;;;;4980794;28;20210;-67
2021/08/27 03:25:22;;;;;;;4.55;2.67;;;13.40;99.90;;;;;;4988547;28;20237;-66
2021/08/27 03:27:56;;;;;;;2.85;2.65;;;13.60;99.90;;;;;;4999396;28;20252;-66
2021/08/27 03:30:27;;;;;;;2.47;2.38;;;13.60;99.90;;;;;;4989412;28;20272;-66
2021/08/27 03:32:59;;;;;;;3.75;2.85;;;13.60;99.90;;;;;;4994654;28;20205;-66
2021/08/27 03:35:27;;;;;;;5.03;3.20;;;13.60;99.90;;;;;;4989732;28;20554;-67
2021/08/27 03:37:55;;;;;;;3.30;3.10;;;13.50;99.90;;;;;;4979971;28;20202;-66
2021/08/27 03:40:24;;;;;;;6.18;3.95;;;13.60;99.90;;;;;;4980614;28;20269;-68
2021/08/27 03:42:52;;;;;;;6.35;3.97;;;13.50;99.90;;;;;;4991794;28;20412;-66
2021/08/27 03:45:22;;;;;;;5.10;4.25;;;13.50;99.90;;;;;;4986278;28;20202;-68
2021/08/27 03:47:50;;;;;;;4.03;3.63;;;13.70;99.90;;;;;;4979248;28;20765;-66
2021/08/27 03:50:18;;;;;;;3.92;3.50;;;13.80;99.90;;;;;;4990503;28;20248;-67
2021/08/27 03:52:47;;;;;;;5.22;3.60;;;13.90;99.90;;;;;;4988361;28;20206;-66
2021/08/27 03:55:16;;;;;;;4.13;2.90;;;14.00;99.90;;;;;;4979106;28;20198;-66
2021/08/27 03:57:46;;;;;;;5.60;3.42;;;14.00;99.90;;;;;;4980084;28;20226;-67
2021/08/27 04:00:34;;;;;;;3.65;2.90;;;13.90;99.90;;;;;;4992810;28;20198;-67
2021/08/27 04:03:01;;;;;;;2.78;2.58;;;14.00;99.90;;;;;;4990787;28;20205;-67
2021/08/27 04:05:28;;;;;;;3.35;3.15;;;14.10;99.90;;;;;;4994795;28;20272;-67
2021/08/27 04:07:55;;;;;;;3.30;3.00;;;14.20;99.90;;;;;;4979305;28;20519;-67
2021/08/27 04:10:23;;;;;;;4.40;4.00;;;14.20;99.90;;;;;;4978833;28;20288;-67
2021/08/27 04:12:49;;;;;;;3.40;3.20;;;14.20;99.90;;;;;;4987719;28;20244;-66
2021/08/27 04:15:22;;;;;;;8.43;4.45;;;14.00;99.90;;;;;;4998206;28;20240;-67
2021/08/27 04:17:50;;;;;;;3.95;3.65;;;14.20;99.90;;;;;;4998965;28;20499;-67
2021/08/27 04:20:17;;;;;;;7.63;3.90;;;14.20;99.90;;;;;;4998428;28;20268;-67
2021/08/27 04:22:44;;;;;;;3.90;3.60;;;14.20;99.90;;;;;;4985185;28;20244;-67
2021/08/27 04:25:11;;;;;;;3.63;3.33;;;14.30;99.90;;;;;;4998687;28;20204;-67
2021/08/27 04:27:38;;;;;;;3.22;3.03;;;14.30;99.90;;;;;;4998355;28;20201;-66
2021/08/27 04:30:06;;;;;;;4.47;4.13;;;14.40;99.90;;;;;;4988231;28;20249;-67
2021/08/27 04:32:33;;;;;;;4.10;3.80;;;14.40;99.90;;;;;;4978771;28;20206;-66
2021/08/27 04:35:00;;;;;;;4.53;4.13;;;14.30;99.90;;;;;;4981453;28;20261;-65
2021/08/27 04:37:27;;;;;;;3.78;3.47;;;14.40;99.90;;;;;;4984586;28;20726;-66
2021/08/27 04:39:54;;;;;;;5.95;4.13;;;14.30;99.90;;;;;;4978921;28;20206;-65
2021/08/27 04:42:21;;;;;;;6.00;4.07;;;14.60;99.90;;;;;;4984700;28;20214;-66
2021/08/27 04:44:48;;;;;;;4.45;3.42;;;14.80;99.90;;;;;;4997145;28;20206;-67
2021/08/27 04:47:15;;;;;;;6.25;5.40;;;15.00;99.90;;;;;;4986312;28;20206;-66
2021/08/27 04:49:42;;;;;;;4.60;4.30;;;15.00;99.90;;;;;;4978589;28;20252;-65
2021/08/27 04:52:09;;;;;;;4.10;3.80;;;15.30;99.90;;;;;;4992134;28;20232;-66
2021/08/27 04:54:36;;;;;;;5.03;3.70;;;15.40;99.90;;;;;;4990891;28;20206;-66
2021/08/27 04:57:04;;;;;;;4.60;3.17;;;15.50;99.90;;;;;;4998445;28;20273;-66
2021/08/27 04:59:31;;;;;;;4.53;3.50;;;15.30;99.90;;;;;;4997704;28;20528;-67
2021/08/27 05:02:01;;;;;;;3.53;3.22;;;15.30;99.90;;;;;;4983814;28;20212;-66
2021/08/27 05:04:29;;;;;;;6.45;4.70;;;15.50;99.90;;;;;;4988288;28;20203;-66
2021/08/27 05:06:56;;;;;;;4.63;3.90;;;15.80;99.90;;;;;;4980346;28;20210;-66
2021/08/27 05:09:24;;;;;;;6.15;3.83;;;15.60;99.90;;;;;;4990031;28;20206;-67
2021/08/27 05:11:51;;;;;;;4.88;4.38;;;15.60;99.90;;;;;;4991640;28;20237;-66
2021/08/27 05:14:18;;;;;;;3.78;3.53;;;15.50;99.90;;;;;;4991266;28;20301;-67
2021/08/27 05:16:45;;;;;;;4.63;4.22;;;15.30;99.90;;;;;;4997865;28;20209;-67
2021/08/27 05:19:13;;;;;;;4.40;4.05;;;15.30;99.90;;;;;;4991859;28;20202;-66
2021/08/27 05:21:40;;;;;;;10.52;4.60;;;15.30;99.90;;;;;;4978481;28;20258;-67
2021/08/27 05:24:07;;;;;;;5.95;5.03;;;15.40;99.90;;;;;;4977608;28;20199;-66
2021/08/27 05:26:35;;;;;;;5.75;5.22;;;15.60;99.90;;;;;;4987063;28;20652;-66
2021/08/27 05:29:03;;;;;;;5.72;4.47;;;15.70;99.90;;;;;;4981737;28;20204;-66
2021/08/27 05:31:31;;;;;;;3.90;3.60;;;15.70;99.90;;;;;;4984612;28;20295;-66
2021/08/27 05:34:01;;;;;;;4.88;4.43;;;15.70;99.90;;;;;;4982829;28;20257;-66
2021/08/27 05:36:28;;;;;;;5.22;4.80;;;15.70;99.90;;;;;;4977947;28;20568;-67
2021/08/27 05:38:55;;;;;;;7.10;4.80;;;15.70;99.90;;;;;;4983848;28;20433;-66
2021/08/27 05:41:22;;;;;;;9.50;4.40;;;15.80;99.90;;;;;;4981522;28;20258;-67
2021/08/27 05:43:49;;;;;;;5.70;4.85;;;15.80;99.90;;;;;;4982359;28;20503;-66
2021/08/27 05:46:16;;;;;;;8.85;4.78;;;15.80;99.90;;;;;;4982944;28;20237;-67
2021/08/27 05:48:43;;;;;;;5.97;5.57;;;15.90;99.90;;;;;;4981042;28;20241;-67
2021/08/27 05:51:10;;;;;;;6.75;5.97;;;16.00;99.90;;;;;;4992145;28;20263;-67
2021/08/27 05:53:37;;;;;;;4.75;4.35;;;16.00;99.90;;;;;;4996919;28;20494;-67
2021/08/27 05:56:04;;;;;;;7.55;5.07;;;16.20;99.90;;;;;;4986761;28;20241;-66
2021/08/27 05:58:31;;;;;;;7.30;4.85;;;16.40;99.90;;;;;;4989805;28;20242;-69
2021/08/27 06:00:58;;;;;;;5.20;4.80;;;16.60;99.90;;;;;;4968485;28;20215;-67
2021/08/27 06:03:28;;;;;;;4.10;3.80;;;16.40;99.90;;;;;;4985561;28;20270;-67
2021/08/27 06:05:56;;;;;;;6.40;4.65;;;16.50;99.90;;;;;;4996621;28;20565;-67
2021/08/27 06:08:23;;;;;;;5.55;5.05;;;16.70;99.90;;;;;;4996672;28;20497;-67
2021/08/27 06:10:51;;;;;;;6.15;5.60;;;16.50;99.90;;;;;;4996389;28;20222;-67
2021/08/27 06:13:18;;;;;;;5.30;4.90;;;16.70;99.90;;;;;;4996270;28;20450;-68
2021/08/27 06:15:45;;;;;;;5.10;4.70;;;16.90;99.90;;;;;;4991902;28;20475;-66
2021/08/27 06:18:14;;;;;;;10.83;4.50;;;17.10;99.90;;;;;;4987783;28;20447;-68
2021/08/27 06:20:41;;;;;;;6.30;4.47;;;17.40;99.90;;;;;;4996262;28;20765;-67
2021/08/27 06:23:08;;;;;;;10.53;5.43;;;17.50;99.90;;;;;;4996537;28;20472;-67
2021/08/27 06:25:35;;;;;;;8.97;4.67;;;17.40;99.90;;;;;;4994890;28;20686;-67
2021/08/27 06:28:03;;;;;;;3.43;3.23;;;17.20;99.90;;;;;;4997146;28;20732;-67
2021/08/27 06:30:34;;;;;;;5.10;4.00;;;17.20;99.90;;;;;;4983409;28;20455;-68
2021/08/27 06:33:06;;;;;;;4.73;3.30;;;17.20;99.90;;;;;;4984292;28;20469;-67
2021/08/27 06:35:34;;;;;;;4.50;4.20;;;17.00;99.90;;;;;;4997540;28;20534;-66
2021/08/27 06:41:07;;;;;;;4.23;3.40;;;17.20;99.90;;;;;;4955900;29;20445;-67
2021/08/27 06:43:41;;;;;;;3.33;3.13;;;17.30;99.90;;;;;;4955859;29;20532;-66
2021/08/27 06:46:11;;;;;;;4.00;3.60;;;17.20;99.90;;;;;;4971783;28;20957;-67
2021/08/27 06:48:39;;;;;;;3.20;2.90;;;17.10;99.90;;;;;;4977967;28;20458;-67
2021/08/27 06:51:06;;;;;;;3.37;2.67;;;17.20;99.90;;;;;;4988359;28;20455;-67
2021/08/27 06:53:33;;;;;;;3.10;2.80;;;17.40;99.90;;;;;;4993423;28;20452;-66
2021/08/27 06:56:00;;;;;;;7.43;2.80;;;17.50;99.90;;;;;;4996612;28;20420;-67
2021/08/27 06:58:28;;;;;;;3.70;3.20;;;17.80;99.90;;;;;;4988542;28;20446;-67
2021/08/27 07:00:55;;;;;;;3.00;2.70;;;17.80;99.90;;;;;;4999539;28;20455;-67
2021/08/27 07:03:23;;;;;;;2.47;2.27;;;18.00;99.90;;;;;;5000850;28;20438;-68
2021/08/27 07:05:50;;;;;;;2.57;2.37;;;17.90;99.90;;;;;;4993843;28;20426;-66
2021/08/27 07:08:17;;;;;;;2.63;2.43;;;17.90;99.90;;;;;;4987451;28;20497;-67
2021/08/27 07:10:44;;;;;;;3.83;2.80;;;18.00;99.90;;;;;;4988442;28;20436;-68
2021/08/27 07:13:13;;;;;;;6.40;2.90;;;18.20;99.90;;;;;;4997747;28;20411;-68
2021/08/27 07:15:41;;;;;;;2.17;2.07;;;18.40;99.90;;;;;;4988659;28;20462;-68
2021/08/27 07:18:12;;;;;;;3.27;1.83;;;18.40;99.90;;;;;;4996968;28;20412;-66
2021/08/27 07:20:39;;;;;;;5.93;3.00;;;18.40;99.90;;;;;;4999995;28;20450;-68
2021/08/27 07:23:07;;;;;;;2.20;2.00;;;18.40;99.90;;;;;;4999562;28;20409;-68
2021/08/27 07:25:34;;;;;;;5.53;2.90;;;18.40;99.90;;;;;;4998046;28;20446;-68
2021/08/27 07:28:01;;;;;;;2.33;2.23;;;18.00;99.90;;;;;;4997470;28;20438;-68
2021/08/27 07:30:28;;;;;;;7.93;2.33;;;18.00;99.90;;;;;;4996338;28;20497;-68
2021/08/27 07:32:55;;;;;;;6.03;2.50;;;17.90;99.90;;;;;;4993917;28;20486;-68
2021/08/27 07:35:23;;;;;;;4.80;3.30;;;18.00;99.90;;;;;;4983620;28;20434;-67
2021/08/27 07:37:50;;;;;;;4.63;2.80;;;17.70;99.90;;;;;;4983897;28;20439;-67
2021/08/27 07:40:17;;;;;;;4.13;2.73;;;17.70;99.90;;;;;;4984030;28;20490;-67
2021/08/27 07:42:45;;;;;;;2.30;2.10;;;17.60;99.90;;;;;;4993310;28;20417;-67
2021/08/27 07:45:13;;;;;;;3.27;2.03;;;17.80;99.90;;;;;;4991086;28;20442;-68
2021/08/27 07:47:42;;;;;;;2.37;1.80;;;18.10;99.90;;;;;;4982367;28;20425;-67
2021/08/27 07:50:11;;;;;;;2.70;2.20;;;18.60;99.90;;;;;;4987519;28;20428;-68
2021/08/27 07:52:38;;;;;;;4.60;2.23;;;19.00;99.90;;;;;;4989895;28;20479;-68
2021/08/27 07:55:06;;;;;;;2.40;2.30;;;19.10;99.90;;;;;;4982141;28;20524;-68
2021/08/27 07:57:39;;;;;;;2.30;2.17;;;19.20;99.90;;;;;;4999062;28;20418;-67
2021/08/27 08:00:06;;;;;;;3.33;2.83;;;19.20;99.90;;;;;;4999058;28;20425;-68
2021/08/27 08:02:33;;;;;;;2.77;2.57;;;19.20;99.90;;;;;;5000026;28;20433;-67
2021/08/27 08:05:02;;;;;;;3.90;3.00;;;19.10;99.90;;;;;;4997779;28;20413;-69
2021/08/27 08:07:29;;;;;;;4.67;2.70;;;19.30;99.90;;;;;;4994647;28;20424;-66
2021/08/27 08:09:58;;;;;;;2.50;2.30;;;19.40;99.90;;;;;;4997018;28;20409;-68
2021/08/27 08:12:25;;;;;;;2.43;2.30;;;19.60;99.90;;;;;;4993965;28;20474;-69
2021/08/27 08:14:57;;;;;;;2.87;2.53;;;20.00;99.90;;;;;;4997250;28;20549;-68
2021/08/27 08:17:28;;;;;;;2.70;2.13;;;20.50;99.90;;;;;;4995536;28;20989;-67
2021/08/27 08:19:56;;;;;;;2.30;2.10;;;20.60;99.90;;;;;;4995784;28;20424;-69
2021/08/27 08:22:23;;;;;;;2.20;2.00;;;20.60;99.90;;;;;;4990877;28;20441;-68
2021/08/27 08:24:50;;;;;;;7.10;2.60;;;20.60;99.90;;;;;;4995127;28;20406;-68
2021/08/27 08:27:17;;;;;;;3.50;2.43;;;20.80;99.90;;;;;;4994127;28;20452;-69
2021/08/27 08:29:44;;;;;;;2.67;2.47;;;20.90;99.90;;;;;;4996954;28;20600;-68
2021/08/27 08:32:11;;;;;;;3.93;3.00;;;21.30;99.90;;;;;;4996533;28;20517;-69
2021/08/27 08:34:40;;;;;;;2.67;2.43;;;21.70;99.90;;;;;;4995375;28;20417;-69
2021/08/27 08:37:08;;;;;;;3.10;2.90;;;22.00;99.90;;;;;;4988151;28;20419;-68
2021/08/27 08:39:38;;;;;;;5.13;3.10;;;21.90;99.90;;;;;;4993170;28;20472;-69
2021/08/27 08:42:05;;;;;;;15.40;3.03;;;21.60;99.90;;;;;;4988860;28;20425;-69
2021/08/27 08:44:33;;;;;;;4.60;2.83;;;21.60;99.90;;;;;;4983758;28;20431;-68
2021/08/27 08:47:03;;;;;;;4.50;4.13;;;21.60;99.90;;;;;;4985252;28;20422;-69
2021/08/27 08:49:35;;;;;;;2.63;2.43;;;21.50;99.90;;;;;;4993442;28;20418;-69
2021/08/27 08:52:03;;;;;;;2.63;2.53;;;21.60;99.90;;;;;;4996267;28;20479;-68
2021/08/27 08:54:31;;;;;;;3.57;3.27;;;21.90;99.90;;;;;;4997167;28;20644;-68
2021/08/27 08:56:58;;;;;;;3.50;3.20;;;22.00;99.90;;;;;;4997326;28;20479;-68
2021/08/27 08:59:27;;;;;;;3.07;2.83;;;21.80;99.90;;;;;;4994497;28;20443;-68
2021/08/27 09:01:53;;;;;;;5.50;3.90;;;21.90;99.90;;;;;;4993218;28;20419;-68
2021/08/27 09:04:24;;;;;;;3.30;2.83;;;21.60;99.90;;;;;;4996242;28;20440;-70
2021/08/27 09:06:52;;;;;;;3.10;2.90;;;21.20;99.90;;;;;;4995703;28;20436;-70
2021/08/27 09:09:31;;;;;;;5.87;3.33;;;21.30;99.90;;;;;;4988949;28;20426;-69
2021/08/27 09:11:59;;;;;;;3.87;2.40;;;21.20;99.90;;;;;;4983696;28;20502;-69
2021/08/27 09:14:30;;;;;;;2.43;2.33;;;21.50;99.90;;;;;;4990098;28;21071;-70
2021/08/27 09:17:04;;;;;;;3.30;3.10;;;21.40;99.90;;;;;;4992361;28;20494;-70
2021/08/27 09:19:53;;;;;;;4.00;3.10;;;21.50;99.90;;;;;;4997748;28;20474;-69
2021/08/27 09:22:20;;;;;;;3.13;2.60;;;21.40;99.90;;;;;;4978131;28;20883;-69
2021/08/27 09:25:09;;;;;;;2.70;2.50;;;21.70;99.90;;;;;;4986262;28;20823;-69
2021/08/27 09:28:25;;;;;;;3.80;2.87;;;22.20;99.90;;;;;;4991479;28;20416;-69
2021/08/27 09:30:55;;;;;;;11.87;2.97;;;22.10;99.90;;;;;;4992731;28;20436;-69
2021/08/27 09:33:33;;;;;;;3.00;2.70;;;22.40;99.90;;;;;;4994870;28;20987;-70
2021/08/27 09:36:02;;;;;;;4.43;3.00;;;22.80;99.90;;;;;;4991883;28;20462;-69
2021/08/27 09:38:40;;;;;;;2.60;2.40;;;22.80;99.90;;;;;;4992407;28;20731;-71
2021/08/27 09:41:12;;;;;;;4.10;2.50;;;23.00;99.90;;;;;;4984173;28;20409;-70
2021/08/27 09:43:51;;;;;;;3.23;2.67;;;23.40;99.90;;;;;;4986769;28;20490;-70
2021/08/27 09:46:46;;;;;;;3.43;3.33;;;23.60;99.90;;;;;;4977463;28;20480;-70
2021/08/27 09:49:26;;;;;;;3.13;2.97;;;23.80;99.90;;;;;;4988918;28;20665;-68
2021/08/27 09:51:55;;;;;;;3.33;3.13;;;23.60;99.90;;;;;;4993384;28;20452;-70
2021/08/27 09:54:31;;;;;;;6.23;3.07;;;23.30;99.90;;;;;;4994948;28;20502;-71
2021/08/27 09:57:03;;;;;;;3.60;3.33;;;23.50;99.90;;;;;;4991852;28;20435;-69
2021/08/27 09:59:47;;;;;;;3.33;3.13;;;23.60;99.90;;;;;;4993874;28;20493;-70
2021/08/27 10:02:35;;;;;;;4.17;3.90;;;23.50;99.90;;;;;;4978085;28;20522;-71
2021/08/27 10:05:04;;;;;;;4.57;3.77;;;22.60;99.90;;;;;;4992319;28;20489;-71
2021/08/27 10:07:34;;;;;;;2.93;2.53;;;21.50;99.90;;;;;;4996809;28;20455;-69
2021/08/27 10:10:05;;;;;;;3.30;2.80;;;21.00;99.90;;;;;;4992856;28;20446;-65
2021/08/27 10:12:36;;;;;;;2.97;2.77;;;20.30;99.90;;;;;;4991625;28;20454;-64
2021/08/27 10:15:05;;;;;;;2.53;2.37;;;19.80;99.90;;;;;;4991732;28;20517;-65
2021/08/27 10:17:35;;;;;;;4.70;3.27;;;19.30;99.90;;;;;;4986343;28;20619;-64
2021/08/27 10:20:07;;;;;;;2.60;2.13;;;19.00;99.90;;;;;;4979772;28;20411;-65
2021/08/27 10:22:40;;;;;;;2.23;2.13;;;18.80;99.90;;;;;;4994464;28;20421;-66
2021/08/27 10:25:10;;;;;;;2.10;2.00;;;18.80;99.90;;;;;;4983116;28;20463;-64
2021/08/27 10:27:47;;;;;;;3.27;2.33;;;18.80;99.90;;;;;;4991062;28;20787;-64
2021/08/27 10:30:15;;;;;;;3.17;1.97;;;18.90;99.90;;;;;;4983558;28;20412;-65
2021/08/27 10:32:42;;;;;;;2.80;2.60;;;19.00;99.90;;;;;;4991186;28;20482;-65
2021/08/27 10:35:23;;;;;;;2.73;2.53;;;19.10;99.90;;;;;;4986360;28;20423;-64
2021/08/27 10:37:53;;;;;;;2.70;2.50;;;19.30;99.90;;;;;;4983774;28;20420;-65
2021/08/27 10:40:27;;;;;;;2.37;2.20;;;19.40;99.90;;;;;;4991584;28;20772;-65
2021/08/27 10:42:58;;;;;;;2.30;2.10;;;19.90;99.90;;;;;;4990693;28;20524;-65
2021/08/27 10:45:41;;;;;;;2.60;1.80;;;20.70;99.90;;;;;;4991422;28;20521;-65
2021/08/27 10:48:11;;;;;;;2.27;1.90;;;21.10;99.90;;;;;;4986609;28;20628;-65
2021/08/27 10:50:41;;;;;;;2.07;1.97;;;21.40;99.90;;;;;;4992085;28;20494;-65
2021/08/27 10:53:37;;;;;;;2.00;1.90;;;22.00;99.90;;;;;;4991553;28;20804;-65
2021/08/27 10:56:06;;;;;;;2.17;2.07;;;21.90;99.90;;;;;;4973932;28;20448;-65
2021/08/27 10:58:48;;;;;;;2.63;2.40;;;21.90;99.90;;;;;;4992547;28;20484;-65
2021/08/27 11:01:27;;;;;;;2.40;2.20;;;21.90;99.90;;;;;;4983763;28;20430;-65
2021/08/27 11:04:03;;;;;;;3.13;2.43;;;22.10;99.90;;;;;;4979590;28;20506;-65
2021/08/27 11:06:31;;;;;;;2.50;2.30;;;21.70;99.90;;;;;;4984289;28;20983;-65
2021/08/27 11:09:22;;;;;;;1.90;1.80;;;21.60;99.90;;;;;;4977468;28;20437;-65
2021/08/27 11:12:18;;;;;;;2.20;2.10;;;21.40;99.90;;;;;;4984700;28;20474;-66
2021/08/27 11:14:47;;;;;;;2.07;1.97;;;20.60;99.90;;;;;;4979795;28;20492;-64
2021/08/27 11:17:14;;;;;;;3.27;2.77;;;19.80;99.90;;;;;;4983606;28;20736;-66
2021/08/27 11:19:49;;;;;;;4.90;3.40;;;20.00;99.90;;;;;;4994690;28;20497;-65
2021/08/27 11:22:27;;;;;;;2.10;2.00;;;20.20;99.90;;;;;;4992697;28;20442;-65
2021/08/27 11:25:05;;;;;;;1.87;1.77;;;20.50;99.90;;;;;;4991699;28;20413;-66
2021/08/27 11:27:37;;;;;;;3.17;2.97;;;20.70;99.90;;;;;;4990016;28;20465;-65
2021/08/27 11:30:28;;;;;;;2.00;1.90;;;20.60;99.90;;;;;;4995036;28;20966;-66
2021/08/27 11:32:58;;;;;;;3.40;2.87;;;20.90;99.90;;;;;;4992863;28;20522;-66
2021/08/27 11:35:27;;;;;;;4.03;2.40;;;20.90;99.90;;;;;;4990017;28;20433;-66
2021/08/27 11:38:05;;;;;;;2.10;2.00;;;21.10;99.90;;;;;;4979274;28;20480;-65
2021/08/27 11:40:33;;;;;;;4.10;2.50;;;21.40;99.90;;;;;;4980033;28;20654;-66
2021/08/27 11:43:00;;;;;;;3.37;3.07;;;21.60;99.90;;;;;;4979211;28;20416;-67
2021/08/27 11:45:27;;;;;;;2.43;2.30;;;21.90;99.90;;;;;;4977787;28;20476;-66
2021/08/27 11:47:59;;;;;;;2.27;2.17;;;21.80;99.90;;;;;;4992958;28;20607;-66
2021/08/27 11:50:35;;;;;;;2.30;2.20;;;21.30;99.90;;;;;;4984595;28;20421;-66
2021/08/27 11:53:03;;;;;;;2.30;2.20;;;20.80;99.90;;;;;;4985825;28;20478;-65
2021/08/27 11:55:31;;;;;;;2.17;2.07;;;20.70;99.90;;;;;;4994811;28;20512;-66
2021/08/27 11:58:00;;;;;;;2.40;2.30;;;20.60;99.90;;;;;;4997620;28;20744;-65
2021/08/27 12:00:31;;;;;;;2.87;2.60;;;20.30;99.90;;;;;;4993831;28;20778;-66
2021/08/27 12:02:59;;;;;;;2.13;2.10;;;20.10;99.90;;;;;;4997820;28;20578;-65
2021/08/27 12:05:28;;;;;;;2.60;2.40;;;20.50;99.90;;;;;;4992704;28;20509;-65
2021/08/27 12:07:58;;;;;;;2.30;2.20;;;20.60;99.90;;;;;;4982846;28;20470;-66
2021/08/27 12:10:27;;;;;;;2.00;1.90;;;20.70;99.90;;;;;;4985182;28;20931;-66
2021/08/27 12:12:55;;;;;;;2.43;2.23;;;20.90;99.90;;;;;;4991654;28;20657;-66
2021/08/27 12:15:23;;;;;;;2.07;1.97;;;21.00;99.90;;;;;;4992195;28;20414;-66
2021/08/27 12:17:57;;;;;;;2.20;2.10;;;21.00;99.90;;;;;;4997098;28;20414;-67
2021/08/27 12:20:45;;;;;;;2.30;2.20;;;21.00;99.90;;;;;;4977144;28;20490;-66
2021/08/27 12:23:17;;;;;;;2.60;2.50;;;20.90;99.90;;;;;;4985934;28;20441;-66
2021/08/27 12:25:54;;;;;;;2.70;2.60;;;21.20;99.90;;;;;;4986535;28;20407;-66
2021/08/27 12:28:38;;;;;;;2.50;2.40;;;21.50;99.90;;;;;;4997915;28;20520;-66
2021/08/27 12:31:07;;;;;;;2.80;2.60;;;21.70;99.90;;;;;;4990577;28;21044;-66
2021/08/27 12:33:56;;;;;;;3.07;2.80;;;21.50;99.90;;;;;;4990900;28;20445;-66
2021/08/27 12:36:24;;;;;;;3.27;3.00;;;21.40;99.90;;;;;;4990580;28;20487;-67
2021/08/27 12:38:52;;;;;;;2.67;2.50;;;21.60;99.90;;;;;;4983368;28;20460;-67
2021/08/27 12:41:20;;;;;;;2.87;2.77;;;21.00;99.90;;;;;;4982369;28;20440;-67
2021/08/27 12:43:47;;;;;;;4.63;2.27;;;20.30;99.90;;;;;;4981212;28;20495;-66
2021/08/27 12:46:27;;;;;;;2.30;2.20;;;19.80;99.90;;;;;;4976342;28;20480;-66
2021/08/27 12:49:15;;;;;;;2.57;2.37;;;19.00;99.90;;;;;;4982416;28;20501;-67
2021/08/27 12:51:44;;;;;;;2.10;2.00;;;19.00;99.90;;;;;;4995311;28;20446;-66
2021/08/27 12:54:12;;;;;;;2.83;2.63;;;18.80;99.90;;;;;;4977346;28;20545;-66
2021/08/27 12:56:41;;;;;;;2.10;2.00;;;18.80;99.90;;;;;;4976975;28;20823;-67
2021/08/27 12:59:17;;;;;;;2.00;1.90;;;18.80;99.90;;;;;;4984727;28;20476;-66
2021/08/27 13:01:45;;;;;;;2.17;2.07;;;18.90;99.90;;;;;;4982463;28;20418;-67
2021/08/27 13:04:13;;;;;;;2.00;1.90;;;19.00;99.90;;;;;;4985302;28;20741;-67
2021/08/27 13:06:48;;;;;;;2.00;1.90;;;19.30;99.90;;;;;;4996895;28;21044;-68